Time;durP1;ratioP1;P1;durP2;ratioP2;P2;SDS_P1;SDS_P2;PMS_P1;PMS_P2;Temp;Humidity;BMP_temperature;BMP_pressure;BME280_temperature;BME280_humidity;BME280_pressure;Samples;Min_cycle;Max_cycle;Signal;HPM_P1;HPM_P2
2022/11/02 00:00:40;;;;;;;16.42;7.63;;;;;;;21.05;64.65;99506.75;2059361;28;20577;-51
2022/11/02 00:01:43;;;;;;;13.88;6.55;;;;;;;21.04;64.37;99502.41;2058574;28;20464;-52
2022/11/02 00:02:44;;;;;;;10.80;6.22;;;;;;;21.04;64.75;99509.69;2059038;28;20050;-52
2022/11/02 00:03:45;;;;;;;;;;;;;;;20.95;64.51;99503.63;2058941;28;20049;-51
2022/11/02 00:04:46;;;;;;;10.85;6.82;;;;;;;20.97;64.87;99501.53;2060238;28;19928;-53
2022/11/02 00:05:48;;;;;;;11.82;6.93;;;;;;;21.00;64.75;99506.53;2061929;28;20056;-49
2022/11/02 00:06:49;;;;;;;11.73;5.43;;;;;;;21.01;64.53;99508.22;2064471;28;20061;-47
2022/11/02 00:07:51;;;;;;;;;;;;;;;20.94;64.85;99507.31;2061946;28;20050;-50
2022/11/02 00:08:51;;;;;;;;;;;;;;;20.86;65.23;99511.00;2059627;28;19925;-53
2022/11/02 00:09:53;;;;;;;11.70;6.25;;;;;;;20.92;64.96;99512.94;2062381;28;19936;-52
2022/11/02 00:10:54;;;;;;;14.27;6.65;;;;;;;20.97;64.82;99509.63;2057988;28;20054;-51
2022/11/02 00:11:55;;;;;;;;;;;;;;;20.90;64.86;99514.97;2064664;28;20056;-52
2022/11/02 00:12:56;;;;;;;16.02;7.13;;;;;;;20.93;64.68;99514.59;2061167;28;19921;-53
2022/11/02 00:14:00;;;;;;;14.35;6.60;;;;;;;20.98;64.53;99514.00;2058273;28;20057;-51
2022/11/02 00:15:01;;;;;;;12.30;7.07;;;;;;;20.99;64.54;99512.97;2061763;28;20804;-51
2022/11/02 00:16:04;;;;;;;;;;;;;;;20.92;64.88;99517.47;2057964;28;20061;-52
2022/11/02 00:17:06;;;;;;;12.35;6.50;;;;;;;20.94;64.74;99510.84;2057763;28;19929;-52
2022/11/02 00:18:11;;;;;;;12.98;5.75;;;;;;;20.98;64.62;99516.69;2060902;28;20046;-49
2022/11/02 00:19:12;;;;;;;13.43;6.32;;;;;;;20.99;64.53;99512.97;2061013;28;20042;-53
2022/11/02 00:20:15;;;;;;;;;;;;;;;20.92;64.80;99509.38;2069115;28;20049;-52
2022/11/02 00:21:18;;;;;;;11.70;6.43;;;;;;;20.94;64.67;99510.84;2066410;28;19922;-48
2022/11/02 00:22:20;;;;;;;12.10;6.22;;;;;;;20.97;64.85;99512.31;2066944;28;20073;-50
2022/11/02 00:23:21;;;;;;;12.77;6.13;;;;;;;21.00;64.65;99503.81;2067384;28;20053;-54
2022/11/02 00:24:23;;;;;;;10.75;5.75;;;;;;;21.01;64.38;99505.50;2067225;28;21280;-53
2022/11/02 00:25:27;;;;;;;12.95;6.55;;;;;;;21.02;64.59;99509.03;2067847;28;20062;-47
2022/11/02 00:26:29;;;;;;;11.55;5.93;;;;;;;20.99;64.69;99504.88;2066423;28;20099;-52
2022/11/02 00:27:30;;;;;;;13.02;6.35;;;;;;;21.02;64.29;99512.56;2068335;28;20062;-50
2022/11/02 00:28:32;;;;;;;13.20;6.63;;;;;;;21.02;64.39;99514.44;2067437;28;20651;-51
2022/11/02 00:29:34;;;;;;;12.35;6.10;;;;;;;21.03;64.45;99514.22;2067661;28;20052;-53
2022/11/02 00:30:38;;;;;;;13.48;6.57;;;;;;;21.03;64.21;99513.38;2064281;28;20053;-48
2022/11/02 00:31:38;;;;;;;13.48;6.32;;;;;;;21.03;64.28;99511.53;2066857;28;20049;-51
2022/11/02 00:32:40;;;;;;;;;;;;;;;20.92;64.67;99504.84;2067879;28;20568;-51
2022/11/02 00:33:40;;;;;;;;;;;;;;;20.86;65.00;99507.47;2070766;28;19937;-48
2022/11/02 00:34:42;;;;;;;14.13;5.83;;;;;;;20.90;64.61;99506.88;2065952;28;19941;-51
2022/11/02 00:35:44;;;;;;;12.65;6.20;;;;;;;20.94;64.58;99504.63;2068378;28;20438;-49
2022/11/02 00:36:46;;;;;;;15.02;6.65;;;;;;;20.98;64.72;99512.13;2067165;28;20053;-49
2022/11/02 00:37:47;;;;;;;13.65;6.22;;;;;;;21.00;64.69;99508.41;2065516;28;20060;-49
2022/11/02 00:38:48;;;;;;;;;;;;;;;20.91;64.70;99505.03;2069546;28;20050;-49
2022/11/02 00:39:49;;;;;;;;;;;;;;;20.85;65.15;99511.22;2074184;28;19925;-50
2022/11/02 00:40:51;;;;;;;9.00;5.97;;;;;;;20.89;64.87;99509.78;2067498;28;20012;-53
2022/11/02 00:41:52;;;;;;;12.88;5.93;;;;;;;20.92;64.78;99510.22;2068810;28;20061;-51
2022/11/02 00:42:53;;;;;;;;;;;;;;;20.87;64.93;99506.47;2068445;28;20077;-52
2022/11/02 00:43:54;;;;;;;;;;;;;;;20.82;65.19;99507.03;2069925;28;19921;-48
2022/11/02 00:44:57;;;;;;;12.83;5.27;;;;;;;20.87;65.22;99510.00;2068749;28;20369;-51
2022/11/02 00:45:58;;;;;;;9.43;5.82;;;;;;;20.92;64.90;99506.69;2068598;28;20304;-49
2022/11/02 00:46:59;;;;;;;;;;;;;;;20.86;65.01;99505.59;2067582;28;20042;-53
2022/11/02 00:48:00;;;;;;;11.05;5.65;;;;;;;20.90;64.95;99506.88;2071785;28;19928;-48
2022/11/02 00:49:02;;;;;;;;;;;;;;;20.85;64.83;99500.44;2068490;28;20125;-53
2022/11/02 00:50:04;;;;;;;14.05;6.65;;;;;;;20.87;64.78;99493.81;2069418;28;20521;-51
2022/11/02 00:51:06;;;;;;;16.55;6.22;;;;;;;20.93;64.68;99493.00;2068933;28;20057;-48
2022/11/02 00:52:07;;;;;;;12.15;6.13;;;;;;;20.96;64.93;99497.19;2065572;28;20056;-53
2022/11/02 00:53:08;;;;;;;;;;;;;;;20.88;64.71;99495.47;2069039;28;20073;-49
2022/11/02 00:54:09;;;;;;;9.55;5.80;;;;;;;20.91;64.96;99488.84;2068247;28;19951;-52
2022/11/02 00:55:11;;;;;;;;;;;;;;;20.84;64.93;99487.94;2068283;28;20076;-53
2022/11/02 00:56:12;;;;;;;16.27;6.80;;;;;;;20.88;65.17;99490.06;2068547;28;20016;-52
2022/11/02 00:57:13;;;;;;;;;;;;;;;20.82;64.92;99487.34;2068394;28;20053;-52
2022/11/02 00:58:15;;;;;;;;;;;;;;;20.78;65.38;99483.34;2067621;28;19932;-49
2022/11/02 00:59:16;;;;;;;14.20;5.72;;;;;;;20.85;64.98;99473.47;2071062;28;19929;-50
2022/11/02 01:00:19;;;;;;;;;;;;;;;20.81;65.14;99480.25;2068718;28;20048;-51
2022/11/02 01:01:20;;;;;;;12.05;5.88;;;;;;;20.86;64.76;99473.25;2067575;28;20092;-52
2022/11/02 01:02:22;;;;;;;;;;;;;;;20.82;65.29;99476.56;2067811;28;20054;-52
2022/11/02 01:03:22;;;;;;;;;;;;;;;20.77;65.40;99470.91;2069193;28;19921;-53
2022/11/02 01:04:24;;;;;;;10.32;6.32;;;;;;;20.83;65.36;99481.72;2071916;28;20498;-50
2022/11/02 01:05:25;;;;;;;12.57;5.68;;;;;;;20.90;64.79;99477.22;2070379;28;20589;-53
2022/11/02 01:06:27;;;;;;;;;;;;;;;20.81;65.15;99478.44;2067679;28;20049;-52
2022/11/02 01:07:28;;;;;;;;;;;;;;;20.79;65.24;99482.34;2070884;28;19925;-50
2022/11/02 01:08:29;;;;;;;11.93;6.25;;;;;;;20.84;65.24;99480.72;2073379;28;19929;-49
2022/11/02 01:09:30;;;;;;;10.95;6.03;;;;;;;20.90;64.86;99479.09;2069983;28;20072;-54
2022/11/02 01:10:32;;;;;;;;;;;;;;;20.83;64.97;99492.53;2070246;28;20144;-49
2022/11/02 01:11:33;;;;;;;14.88;5.30;;;;;;;20.86;64.91;99475.94;2067934;28;19928;-53
2022/11/02 01:12:36;;;;;;;;;;;;;;;20.82;65.29;99490.03;2071061;28;20053;-51
2022/11/02 01:13:37;;;;;;;11.50;6.35;;;;;;;20.86;64.82;99488.59;2068066;28;19925;-50
2022/11/02 01:14:38;;;;;;;;;;;;;;;20.82;65.18;99484.66;2068734;28;20076;-54
2022/11/02 01:15:41;;;;;;;;;;;;;;;20.75;65.27;99485.44;2068170;28;19925;-53
2022/11/02 01:16:44;;;;;;;13.93;5.65;;;;;;;20.82;64.89;99485.47;2070864;28;19933;-53
2022/11/02 01:17:45;;;;;;;10.63;5.30;;;;;;;20.87;64.83;99482.19;2066457;28;20061;-53
2022/11/02 01:18:46;;;;;;;;;;;;;;;20.81;65.14;99480.25;2067894;28;20049;-50
2022/11/02 01:19:48;;;;;;;;;;;;;;;20.76;65.35;99483.56;2070799;28;19921;-52
2022/11/02 01:20:56;;;;;;;12.70;5.13;;;;;;;20.82;65.10;99479.25;2072749;28;19929;-50
2022/11/02 01:21:57;;;;;;;11.13;6.45;;;;;;;20.86;65.20;99469.72;2070189;28;20049;-54
2022/11/02 01:22:59;;;;;;;;;;;;;;;20.81;65.14;99474.88;2068954;28;20065;-52
2022/11/02 01:23:59;;;;;;;11.43;5.78;;;;;;;20.86;65.13;99467.84;2068163;28;19964;-53
2022/11/02 01:25:01;;;;;;;;;;;;;;;20.79;64.95;99472.38;2070133;28;20230;-50
2022/11/02 01:26:02;;;;;;;;;;;;;;;20.73;65.32;99470.50;2070762;28;19925;-52
2022/11/02 01:27:04;;;;;;;8.88;5.38;;;;;;;20.80;65.16;99475.91;2071713;28;19963;-53
2022/11/02 01:28:05;;;;;;;10.70;6.95;;;;;;;20.85;64.89;99474.28;2070304;28;20057;-51
2022/11/02 01:29:06;;;;;;;;;;;;;;;20.80;65.20;99463.25;2072664;28;20128;-54
2022/11/02 01:30:08;;;;;;;11.82;5.32;;;;;;;20.85;65.17;99470.75;2075471;28;19929;-49
2022/11/02 01:31:12;;;;;;;13.13;6.07;;;;;;;20.89;64.91;99467.44;2074089;28;20049;-53
2022/11/02 01:32:12;;;;;;;9.40;5.15;;;;;;;20.90;64.61;99462.91;2070925;28;20049;-53
2022/11/02 01:33:14;;;;;;;;;;;;;;;20.82;64.89;99458.50;2071977;28;20049;-47
2022/11/02 01:34:15;;;;;;;7.13;4.53;;;;;;;20.85;64.67;99468.91;2068019;28;20404;-53
2022/11/02 01:35:17;;;;;;;;;;;;;;;20.81;65.05;99456.00;2071477;28;20050;-51
2022/11/02 01:36:20;;;;;;;8.13;4.80;;;;;;;20.83;65.03;99454.78;2067430;28;19936;-51
2022/11/02 01:37:21;;;;;;;8.30;5.45;;;;;;;20.87;64.59;99450.66;2069748;28;22180;-52
2022/11/02 01:38:23;;;;;;;9.48;6.10;;;;;;;20.90;64.79;99455.66;2070775;28;20046;-53
2022/11/02 01:39:25;;;;;;;12.13;5.40;;;;;;;20.91;64.61;99456.47;2067480;28;21677;-53
2022/11/02 01:40:25;;;;;;;9.85;5.25;;;;;;;20.92;64.60;99450.03;2066572;28;20058;-50
2022/11/02 01:41:27;;;;;;;;;;;;;;;20.83;64.70;99449.38;2064982;28;20068;-53
2022/11/02 01:42:27;;;;;;;;;;;;;;;20.77;65.02;99457.44;2066365;28;19931;-51
2022/11/02 01:43:31;;;;;;;9.38;4.97;;;;;;;20.82;65.11;99455.00;2065567;28;19925;-52
2022/11/02 01:44:34;;;;;;;6.72;4.78;;;;;;;20.87;64.71;99460.63;2064486;28;20053;-52
2022/11/02 01:45:36;;;;;;;9.13;4.55;;;;;;;20.89;64.86;99456.66;2068385;28;20053;-50
2022/11/02 01:46:41;;;;;;;11.23;6.43;;;;;;;20.91;64.77;99461.88;2066528;28;20041;-53
2022/11/02 01:47:47;;;;;;;9.30;5.70;;;;;;;20.92;64.54;99463.53;2066318;28;20204;-52
2022/11/02 01:48:56;;;;;;;6.47;5.72;;;;;;;20.92;64.51;99458.13;2064602;28;20050;-52
2022/11/02 01:50:03;;;;;;;9.82;5.15;;;;;;;20.92;64.40;99460.84;2067597;28;20099;-52
2022/11/02 01:51:08;;;;;;;9.80;5.97;;;;;;;20.92;64.57;99459.00;2065856;28;21868;-53
2022/11/02 01:52:14;;;;;;;11.63;5.05;;;;;;;20.93;64.70;99457.13;2059263;28;20665;-51
2022/11/02 01:53:15;;;;;;;8.13;4.75;;;;;;;20.92;64.78;99458.13;2065711;28;20107;-53
2022/11/02 01:54:19;;;;;;;;;;;;;;;20.83;64.71;99453.94;2066596;28;20057;-53
2022/11/02 01:55:23;;;;;;;7.85;4.65;;;;;;;20.85;64.85;99451.88;2067042;28;20400;-53
2022/11/02 01:56:29;;;;;;;11.45;5.25;;;;;;;20.87;64.70;99447.97;2064849;28;20494;-48
2022/11/02 01:57:32;;;;;;;10.50;5.63;;;;;;;20.90;64.56;99457.53;2065992;28;20050;-51
2022/11/02 01:58:34;;;;;;;12.45;5.75;;;;;;;20.92;64.61;99445.50;2064212;28;20064;-49
2022/11/02 01:59:43;;;;;;;9.68;5.35;;;;;;;20.92;64.60;99450.03;2066331;28;20049;-50
2022/11/02 02:00:45;;;;;;;8.00;5.45;;;;;;;20.91;64.63;99441.13;2066651;28;20079;-53
2022/11/02 02:01:48;;;;;;;9.63;5.10;;;;;;;20.93;64.32;99447.16;2066801;28;20610;-52
2022/11/02 02:02:55;;;;;;;11.25;5.38;;;;;;;20.94;64.72;99450.69;2065727;28;20505;-52
2022/11/02 02:03:57;;;;;;;9.30;4.72;;;;;;;20.93;64.34;99443.66;2065184;28;20530;-51
2022/11/02 02:05:05;;;;;;;8.68;4.78;;;;;;;20.93;64.60;99444.47;2066392;28;20509;-52
2022/11/02 02:06:10;;;;;;;10.23;5.50;;;;;;;20.92;64.34;99441.97;2063677;28;20073;-52
2022/11/02 02:07:13;;;;;;;13.60;5.65;;;;;;;20.94;64.35;99442.59;2067198;28;20598;-52
2022/11/02 02:08:17;;;;;;;9.52;5.80;;;;;;;20.93;64.73;99439.06;2068699;28;20042;-48
2022/11/02 02:09:20;;;;;;;11.38;5.88;;;;;;;20.95;64.36;99444.28;2065829;28;20056;-54
2022/11/02 02:10:21;;;;;;;11.18;5.45;;;;;;;20.93;64.35;99433.69;2067417;28;20090;-53
2022/11/02 02:11:27;;;;;;;;;;;;;;;20.85;64.63;99435.72;2067293;28;20045;-48
2022/11/02 02:12:30;;;;;;;8.95;5.78;;;;;;;20.87;64.65;99428.25;2065469;28;19928;-50
2022/11/02 02:13:32;;;;;;;8.18;4.88;;;;;;;20.90;64.83;99433.25;2066942;28;20141;-52
2022/11/02 02:14:34;;;;;;;12.30;4.57;;;;;;;20.92;64.39;99437.41;2067295;28;20115;-53
2022/11/02 02:15:41;;;;;;;8.00;4.82;;;;;;;20.93;64.54;99438.25;2064773;28;20152;-51
2022/11/02 02:17:05;;;;;;;6.75;4.38;;;;;;;20.91;64.62;99429.50;2066593;28;20517;-53
2022/11/02 02:18:12;;;;;;;7.68;4.53;;;;;;;20.91;64.58;99427.66;2059514;28;20057;-50
2022/11/02 02:19:24;;;;;;;9.07;5.32;;;;;;;20.90;64.69;99428.69;2065386;28;20053;-47
2022/11/02 02:20:41;;;;;;;11.70;5.72;;;;;;;20.88;64.50;99432.63;2065041;28;20056;-47
2022/11/02 02:21:52;;;;;;;11.40;4.57;;;;;;;20.87;64.47;99426.41;2066416;28;20049;-50
2022/11/02 02:23:22;;;;;;;10.45;4.63;;;;;;;20.87;64.45;99423.69;2067520;28;20137;-51
2022/11/02 02:24:40;;;;;;;9.77;5.10;;;;;;;20.88;64.71;99424.53;2064611;28;20073;-52
2022/11/02 02:26:00;;;;;;;12.27;5.28;;;;;;;20.88;64.63;99419.13;2065289;28;20049;-54
2022/11/02 02:27:20;;;;;;;10.02;4.30;;;;;;;20.84;64.56;99424.09;2063361;28;20134;-47
2022/11/02 02:28:31;;;;;;;9.35;4.90;;;;;;;20.87;64.36;99420.19;2065953;28;20057;-47
2022/11/02 02:29:40;;;;;;;8.52;4.78;;;;;;;20.89;64.38;99421.63;2065540;28;20173;-53
2022/11/02 02:30:48;;;;;;;9.02;5.00;;;;;;;20.89;64.52;99415.41;2065807;28;20053;-50
2022/11/02 02:31:58;;;;;;;8.10;4.65;;;;;;;20.91;64.80;99418.72;2068370;28;20053;-52
2022/11/02 02:33:04;;;;;;;9.25;4.53;;;;;;;20.89;64.79;99421.63;2069517;28;20050;-50
2022/11/02 02:34:12;;;;;;;9.02;4.75;;;;;;;20.91;64.53;99418.72;2070911;28;20058;-49
2022/11/02 02:35:23;;;;;;;9.63;4.47;;;;;;;20.90;64.62;99417.06;2071404;28;20136;-52
2022/11/02 02:36:29;;;;;;;9.10;4.60;;;;;;;20.90;64.77;99417.06;2070063;28;20619;-52
2022/11/02 02:37:35;;;;;;;9.18;5.35;;;;;;;20.90;64.26;99417.06;2069998;28;20057;-52
2022/11/02 02:38:44;;;;;;;9.75;4.63;;;;;;;20.89;64.70;99412.69;2072172;28;20053;-50
2022/11/02 02:39:52;;;;;;;7.05;4.43;;;;;;;20.89;64.30;99415.41;2071518;28;20045;-51
2022/11/02 02:41:03;;;;;;;8.05;4.45;;;;;;;20.91;64.25;99407.94;2074632;28;20081;-52
2022/11/02 02:42:11;;;;;;;5.15;4.07;;;;;;;20.90;64.62;99409.81;2069872;28;20049;-50
2022/11/02 02:43:18;;;;;;;8.63;5.25;;;;;;;20.90;64.83;99411.69;2073679;28;20049;-49
2022/11/02 02:44:25;;;;;;;10.20;4.40;;;;;;;20.90;64.54;99412.50;2073950;28;20041;-53
2022/11/02 02:45:32;;;;;;;10.48;5.28;;;;;;;20.92;64.60;99410.47;2073777;28;20818;-50
2022/11/02 02:46:38;;;;;;;8.93;4.75;;;;;;;20.91;64.27;99410.63;2073885;28;20056;-52
2022/11/02 02:47:45;;;;;;;8.05;5.05;;;;;;;20.91;64.52;99407.94;2071221;28;20041;-50
2022/11/02 02:48:49;;;;;;;7.63;4.45;;;;;;;20.91;64.43;99410.63;2070444;28;20053;-50
2022/11/02 02:49:54;;;;;;;9.43;5.30;;;;;;;20.91;64.53;99406.06;2072843;28;20060;-52
2022/11/02 02:51:00;;;;;;;5.93;4.15;;;;;;;20.91;64.49;99413.34;2072284;28;20624;-53
2022/11/02 02:52:02;;;;;;;7.85;4.30;;;;;;;20.91;64.59;99410.63;2070457;28;20069;-49
2022/11/02 02:53:06;;;;;;;6.72;4.38;;;;;;;20.93;64.53;99411.28;2072436;28;20152;-53
2022/11/02 02:54:12;;;;;;;7.75;4.05;;;;;;;20.92;64.23;99412.28;2071172;28;20129;-51
2022/11/02 02:55:17;;;;;;;5.97;4.75;;;;;;;20.91;64.36;99414.16;2073004;28;20042;-47
2022/11/02 02:56:23;;;;;;;6.78;4.05;;;;;;;20.91;64.66;99405.25;2071583;28;20057;-52
2022/11/02 02:57:27;;;;;;;9.07;4.80;;;;;;;20.91;64.30;99407.94;2072963;28;20049;-54
2022/11/02 02:58:33;;;;;;;7.70;5.03;;;;;;;20.91;64.59;99410.63;2070208;28;20062;-48
2022/11/02 02:59:39;;;;;;;9.57;4.97;;;;;;;20.90;64.35;99412.50;2071138;28;20050;-53
2022/11/02 03:00:41;;;;;;;6.53;4.60;;;;;;;20.90;64.21;99406.28;2070681;28;20092;-52
2022/11/02 03:01:43;;;;;;;6.55;4.40;;;;;;;20.90;64.35;99409.81;2070621;28;20512;-50
2022/11/02 03:02:59;;;;;;;7.35;4.43;;;;;;;20.91;64.18;99407.94;2071131;28;20052;-52
2022/11/02 03:04:00;;;;;;;9.30;5.05;;;;;;;20.88;64.32;99408.34;2069944;28;20064;-52
2022/11/02 03:05:02;;;;;;;6.63;4.05;;;;;;;20.90;64.68;99409.00;2072283;28;20489;-51
2022/11/02 03:06:12;;;;;;;7.80;4.15;;;;;;;20.92;64.46;99409.59;2070603;28;20052;-53
2022/11/02 03:07:20;;;;;;;7.50;4.63;;;;;;;20.92;64.44;99421.25;2070681;28;20096;-51
2022/11/02 03:08:21;;;;;;;8.27;4.25;;;;;;;20.90;64.45;99417.06;2070938;28;20125;-51
2022/11/02 03:09:27;;;;;;;;;;;;;;;20.82;64.48;99414.53;2065667;28;20053;-52
2022/11/02 03:10:33;;;;;;;10.35;4.57;;;;;;;20.84;64.59;99417.84;2071636;28;19978;-50
2022/11/02 03:11:43;;;;;;;6.90;4.25;;;;;;;20.85;64.40;99414.16;2072647;28;20080;-49
2022/11/02 03:12:51;;;;;;;9.10;4.40;;;;;;;20.86;64.77;99415.78;2070214;28;20050;-52
2022/11/02 03:14:06;;;;;;;7.10;4.78;;;;;;;20.86;64.29;99421.19;2072467;28;20133;-53
2022/11/02 03:15:16;;;;;;;9.05;3.83;;;;;;;20.88;64.30;99425.34;2070460;28;20057;-50
2022/11/02 03:16:32;;;;;;;9.40;4.82;;;;;;;20.86;64.48;99421.19;2071813;28;20721;-51
2022/11/02 03:17:45;;;;;;;6.95;4.72;;;;;;;20.86;64.39;99421.19;2072151;28;20052;-54
2022/11/02 03:18:51;;;;;;;7.13;4.18;;;;;;;20.87;64.53;99425.56;2070766;28;20064;-49
2022/11/02 03:20:01;;;;;;;5.95;4.05;;;;;;;20.87;64.63;99429.09;2069767;28;20057;-51
2022/11/02 03:21:12;;;;;;;9.63;4.70;;;;;;;20.87;64.43;99426.41;2070719;28;20053;-53
2022/11/02 03:22:23;;;;;;;5.68;4.05;;;;;;;20.88;64.42;99432.63;2070750;28;20650;-53
2022/11/02 03:23:32;;;;;;;7.13;4.28;;;;;;;20.87;64.67;99428.25;2072603;28;20532;-52
2022/11/02 03:24:41;;;;;;;6.45;4.38;;;;;;;20.87;64.83;99428.25;2070949;28;20087;-51
2022/11/02 03:25:52;;;;;;;6.38;4.63;;;;;;;20.87;64.38;99428.25;2068268;28;20111;-53
2022/11/02 03:27:01;;;;;;;;;;;;;;;20.76;65.05;99432.34;2069257;28;22009;-48
2022/11/02 03:28:11;;;;;;;5.68;3.85;;;;;;;20.78;64.89;99429.44;2071408;28;19948;-51
2022/11/02 03:29:18;;;;;;;7.00;3.78;;;;;;;20.81;64.83;99427.19;2070006;28;20049;-52
2022/11/02 03:30:23;;;;;;;8.05;4.13;;;;;;;20.84;64.88;99429.50;2072244;28;20045;-51
2022/11/02 03:31:35;;;;;;;9.15;4.07;;;;;;;20.84;64.75;99423.25;2070040;28;21023;-53
2022/11/02 03:32:40;;;;;;;8.13;4.65;;;;;;;20.85;64.59;99425.75;2070307;28;20060;-51
2022/11/02 03:33:47;;;;;;;7.10;5.18;;;;;;;20.87;64.58;99425.56;2071435;28;20056;-53
2022/11/02 03:34:55;;;;;;;7.97;4.43;;;;;;;20.86;64.57;99427.41;2069774;28;20064;-50
2022/11/02 03:36:04;;;;;;;5.70;3.90;;;;;;;20.86;64.62;99427.41;2067482;28;20137;-54
2022/11/02 03:37:13;;;;;;;7.28;4.47;;;;;;;20.85;64.63;99428.44;2071321;28;20041;-50
2022/11/02 03:38:21;;;;;;;5.72;3.90;;;;;;;20.86;64.52;99426.59;2070385;28;20072;-49
2022/11/02 03:39:32;;;;;;;6.43;3.88;;;;;;;20.85;64.67;99428.44;2071164;28;20045;-53
2022/11/02 03:40:39;;;;;;;5.00;3.50;;;;;;;20.85;64.78;99430.31;2072509;28;20050;-51
2022/11/02 03:41:44;;;;;;;6.97;4.32;;;;;;;20.84;64.60;99432.19;2071401;28;20048;-53
2022/11/02 03:42:49;;;;;;;8.35;4.53;;;;;;;20.86;64.78;99437.38;2069361;28;20497;-52
2022/11/02 03:43:57;;;;;;;6.30;3.80;;;;;;;20.85;64.51;99425.75;2072903;28;20049;-50
2022/11/02 03:45:04;;;;;;;7.22;4.63;;;;;;;20.85;64.53;99428.44;2072611;28;20046;-52
2022/11/02 03:46:09;;;;;;;6.03;3.75;;;;;;;20.86;64.62;99430.09;2073227;28;20157;-51
2022/11/02 03:47:16;;;;;;;6.05;3.58;;;;;;;20.85;64.67;99423.06;2072190;28;20080;-48
2022/11/02 03:48:18;;;;;;;7.63;3.80;;;;;;;20.85;64.53;99433.84;2070638;28;20744;-48
2022/11/02 03:49:22;;;;;;;7.15;4.40;;;;;;;20.86;64.58;99432.81;2071448;28;20582;-50
2022/11/02 03:50:23;;;;;;;6.80;3.28;;;;;;;20.86;64.51;99443.59;2069813;28;20048;-51
2022/11/02 03:51:27;;;;;;;8.23;4.70;;;;;;;20.86;64.73;99437.38;2070868;28;20743;-51
2022/11/02 03:52:31;;;;;;;5.35;4.35;;;;;;;20.86;64.38;99442.75;2071782;28;20057;-53
2022/11/02 03:53:40;;;;;;;7.07;3.72;;;;;;;20.87;64.47;99433.66;2072439;28;20090;-48
2022/11/02 03:54:48;;;;;;;6.13;4.10;;;;;;;20.86;64.34;99437.38;2071381;28;20042;-49
2022/11/02 03:55:55;;;;;;;7.40;4.25;;;;;;;20.85;64.64;99441.09;2074399;28;20068;-51
2022/11/02 03:57:00;;;;;;;4.28;3.33;;;;;;;20.86;64.69;99448.16;2072666;28;20739;-53
2022/11/02 03:58:02;;;;;;;7.53;3.58;;;;;;;20.86;64.58;99450.84;2073044;28;20057;-53
2022/11/02 03:59:03;;;;;;;8.07;4.70;;;;;;;20.86;64.76;99448.97;2073091;28;20610;-50
2022/11/02 04:00:10;;;;;;;6.25;3.30;;;;;;;20.85;64.60;99447.31;2072494;28;20079;-53
2022/11/02 04:01:15;;;;;;;8.07;3.97;;;;;;;20.85;64.52;99451.88;2070899;28;20045;-50
2022/11/02 04:02:18;;;;;;;6.30;4.85;;;;;;;20.85;64.43;99439.25;2073424;28;20060;-51
2022/11/02 04:03:21;;;;;;;4.90;3.63;;;;;;;20.86;64.71;99440.06;2071294;28;20045;-52
2022/11/02 04:04:23;;;;;;;7.05;4.15;;;;;;;20.85;64.63;99443.81;2064990;28;20060;-54
2022/11/02 04:05:28;;;;;;;7.05;4.30;;;;;;;20.84;64.32;99445.66;2072620;28;20124;-50
2022/11/02 04:06:30;;;;;;;6.15;3.83;;;;;;;20.85;64.71;99447.31;2071204;28;20063;-51
2022/11/02 04:08:51;;;;;;;7.18;3.42;;;;;;;20.83;64.59;99456.63;2072592;28;20091;-50
2022/11/02 04:09:52;;;;;;;5.90;3.90;;;;;;;20.84;64.55;99455.59;2071954;28;20045;-53
2022/11/02 04:14:52;;;;;;;5.82;3.63;;;;;;;20.81;64.57;99458.69;2071927;28;20690;-51
2022/11/02 04:15:53;;;;;;;6.35;3.90;;;;;;;20.82;64.60;99457.69;2072874;28;20053;-50
2022/11/02 04:19:31;;;;;;;6.07;4.63;;;;;;;20.78;64.71;99459.09;2072010;28;20038;-49
2022/11/02 04:20:31;;;;;;;6.88;4.13;;;;;;;20.80;64.61;99471.34;2072564;28;20060;-48
2022/11/02 04:21:33;;;;;;;;;;;;;;;20.71;64.82;99465.28;2073168;28;20053;-52
2022/11/02 04:25:17;;;;;;;6.25;3.28;;;;;;;20.74;64.81;99466.75;2072966;28;20045;-53
2022/11/02 04:26:18;;;;;;;10.05;4.68;;;;;;;20.77;65.01;99458.25;2072126;28;20160;-51
2022/11/02 04:27:19;;;;;;;7.70;4.32;;;;;;;20.79;64.92;99469.69;2071067;28;20047;-49
2022/11/02 04:28:21;;;;;;;5.75;3.65;;;;;;;20.80;64.71;99463.25;2071789;28;20053;-50
2022/11/02 04:29:23;;;;;;;8.60;4.82;;;;;;;20.81;64.74;99464.94;2071065;28;20046;-51
2022/11/02 04:30:23;;;;;;;5.72;4.03;;;;;;;20.81;64.70;99456.00;2072508;28;20037;-52
2022/11/02 04:31:25;;;;;;;;;;;;;;;20.72;64.84;99469.63;2073849;28;20516;-52
2022/11/02 04:33:46;;;;;;;6.85;3.55;;;;;;;20.69;64.92;99471.91;2071563;28;19925;-53
2022/11/02 04:34:47;;;;;;;;;;;;;;;20.65;65.16;99466.06;2071877;28;20058;-50
2022/11/02 04:35:48;;;;;;;7.67;3.70;;;;;;;20.69;65.16;99463.81;2070894;28;19921;-51
2022/11/02 04:36:49;;;;;;;9.13;4.45;;;;;;;20.73;64.71;99465.94;2066086;28;20061;-52
2022/11/02 04:39:10;;;;;;;5.57;3.30;;;;;;;20.69;64.96;99461.94;2070977;28;20397;-49
2022/11/02 04:40:12;;;;;;;8.43;4.05;;;;;;;20.74;65.03;99466.75;2073770;28;20049;-50
2022/11/02 04:42:34;;;;;;;6.30;3.28;;;;;;;20.73;64.92;99460.53;2071882;28;20038;-52
2022/11/02 04:43:36;;;;;;;5.93;4.43;;;;;;;20.76;64.79;99459.31;2064083;28;20176;-54
2022/11/02 04:44:37;;;;;;;6.15;3.70;;;;;;;20.76;64.59;99467.41;2063747;28;20054;-50
2022/11/02 04:45:38;;;;;;;5.15;4.13;;;;;;;20.78;64.59;99459.09;2065757;28;20058;-51
2022/11/02 04:46:40;;;;;;;7.10;3.60;;;;;;;20.79;64.47;99461.59;2065619;28;20057;-52
2022/11/02 04:47:43;;;;;;;7.05;4.03;;;;;;;20.81;64.69;99461.38;2064391;28;20149;-52
2022/11/02 04:48:44;;;;;;;9.70;4.55;;;;;;;20.80;64.83;99457.88;2065467;28;20064;-53
2022/11/02 04:49:46;;;;;;;;;;;;;;;20.70;64.77;99469.03;2065838;28;20060;-51
2022/11/02 04:50:46;;;;;;;;;;;;;;;20.62;65.04;99461.09;2065868;28;19983;-53
2022/11/02 04:51:48;;;;;;;5.63;3.70;;;;;;;20.67;64.96;99464.03;2067456;28;19925;-50
2022/11/02 04:52:55;;;;;;;4.45;3.13;;;;;;;20.71;64.75;99465.28;2065262;28;20381;-51
2022/11/02 04:53:57;;;;;;;6.47;3.15;;;;;;;20.72;64.94;99464.25;2065263;28;20080;-52
2022/11/02 04:54:58;;;;;;;6.15;3.85;;;;;;;20.77;64.74;99466.34;2067008;28;20064;-53
2022/11/02 04:56:00;;;;;;;7.05;3.35;;;;;;;20.77;64.87;99469.06;2064565;28;20949;-52
2022/11/02 04:57:01;;;;;;;9.32;3.78;;;;;;;20.78;64.38;99472.56;2068845;28;20489;-51
2022/11/02 04:58:03;;;;;;;4.82;2.95;;;;;;;20.78;64.85;99476.09;2068271;28;20054;-52
2022/11/02 04:59:04;;;;;;;6.45;3.42;;;;;;;20.78;64.55;99472.56;2069443;28;22343;-53
2022/11/02 05:00:07;;;;;;;;;;;;;;;20.68;64.85;99468.38;2066802;28;20141;-52
2022/11/02 05:01:14;;;;;;;5.50;3.15;;;;;;;20.71;64.66;99470.66;2066771;28;19924;-51
2022/11/02 05:02:15;;;;;;;4.05;3.08;;;;;;;20.73;64.85;99474.00;2065533;28;20042;-52
2022/11/02 05:03:18;;;;;;;;;;;;;;;20.66;65.02;99469.59;2070632;28;20049;-50
2022/11/02 05:04:18;;;;;;;5.90;3.50;;;;;;;20.68;64.78;99471.06;2068959;28;19925;-51
2022/11/02 05:05:20;;;;;;;;;;;;;;;20.63;64.98;99472.69;2065721;28;20050;-51
2022/11/02 05:06:21;;;;;;;;;;;;;;;20.57;65.33;99466.22;2065788;28;20636;-51
2022/11/02 05:07:23;;;;;;;5.55;2.90;;;;;;;20.63;64.95;99473.50;2067234;28;19929;-53
2022/11/02 05:08:24;;;;;;;6.32;3.35;;;;;;;20.69;64.92;99475.41;2066230;28;20445;-50
2022/11/02 05:09:26;;;;;;;7.22;3.97;;;;;;;20.71;65.00;99465.28;2066383;28;20058;-53
2022/11/02 05:10:26;;;;;;;6.30;3.70;;;;;;;20.74;64.56;99466.75;2067495;28;20060;-52
2022/11/02 05:11:28;;;;;;;;;;;;;;;20.65;64.89;99468.78;2068823;28;20584;-53
2022/11/02 05:12:29;;;;;;;6.38;3.50;;;;;;;20.69;64.70;99477.28;2066880;28;20843;-53
2022/11/02 05:13:31;;;;;;;;;;;;;;;20.62;65.07;99471.84;2066423;28;20049;-53
2022/11/02 05:14:32;;;;;;;6.65;3.40;;;;;;;20.66;64.61;99475.81;2065233;28;19929;-50
2022/11/02 05:15:33;;;;;;;;;;;;;;;20.60;65.16;99476.59;2065870;28;20053;-51
2022/11/02 05:16:34;;;;;;;;;;;;;;;20.56;65.39;99479.88;2065938;28;19932;-50
2022/11/02 05:17:35;;;;;;;5.97;4.03;;;;;;;20.60;65.12;99471.22;2065893;28;19943;-51
2022/11/02 05:18:38;;;;;;;4.15;2.60;;;;;;;20.67;64.74;99476.63;2068398;28;20045;-54
2022/11/02 05:19:39;;;;;;;5.88;2.90;;;;;;;20.69;64.68;99479.97;2065968;28;20044;-52
2022/11/02 05:20:40;;;;;;;5.78;3.10;;;;;;;20.70;64.83;99474.41;2067302;28;20042;-51